Time,TemperatureF,DewpointF,PressureIn,WindDirection,WindDirectionDegrees,WindSpeedMPH,WindSpeedGustMPH,Humidity,HourlyPrecipIn,Conditions,Clouds,dailyrainin,SoftwareType,DateUTC
2013-01-22 07:46:00,19.0,-12.6,28.88,NW,319,0.0,0.0,23,0.00,,CLR,0.00,VWS V14.01,2013-01-22 12:46:00,
2013-01-22 07:47:00,19.0,-12.6,28.88,WNW,285,5.8,5.8,23,0.00,,CLR,0.00,VWS V14.01,2013-01-22 12:47:00,
2013-01-22 07:48:00,19.0,-12.6,28.88,NW,318,0.0,3.1,23,0.00,,CLR,0.00,VWS V14.01,2013-01-22 12:48:00,
2013-01-22 07:53:00,19.2,-12.5,28.88,West,281,2.7,2.7,23,0.00,,CLR,0.00,VWS V14.01,2013-01-22 12:53:00,
2013-01-22 07:58:00,19.2,-12.5,28.88,NW,321,0.0,0.0,23,0.00,,CLR,0.00,VWS V14.01,2013-01-22 12:58:00,
2013-01-22 08:03:00,19.4,-12.3,28.88,NNW,346,0.0,0.0,23,0.00,,CLR,0.00,VWS V14.01,2013-01-22 13:03:00,
2013-01-22 08:08:00,19.6,-13.1,28.88,West,278,3.1,4.0,22,0.00,,CLR,0.00,VWS V14.01,2013-01-22 13:08:00,
2013-01-22 08:13:00,19.8,-12.9,28.88,West,278,3.1,3.1,22,0.00,,CLR,0.00,VWS V14.01,2013-01-22 13:13:00,
2013-01-22 08:18:00,19.9,-12.8,28.91,West,278,3.1,3.1,22,0.00,,CLR,0.00,VWS V14.01,2013-01-22 13:18:00,
2013-01-22 08:24:00,20.1,-12.6,28.91,West,278,3.1,3.1,22,0.00,,CLR,0.00,VWS V14.01,2013-01-22 13:24:00,
2013-01-22 08:29:00,20.1,-12.6,28.91,WNW,292,2.7,4.0,22,0.00,,CLR,0.00,VWS V14.01,2013-01-22 13:29:00,
2013-01-22 08:34:00,20.3,-12.5,28.91,WNW,295,3.1,3.1,22,0.00,,CLR,0.00,VWS V14.01,2013-01-22 13:34:00,
2013-01-22 08:39:00,20.3,-12.5,28.91,WNW,283,8.3,8.3,22,0.00,,CLR,0.00,VWS V14.01,2013-01-22 13:39:00,
2013-01-22 08:44:00,20.1,-12.6,28.91,West,274,7.6,7.6,22,0.00,,CLR,0.00,VWS V14.01,2013-01-22 13:44:00,
2013-01-22 08:49:00,20.3,-12.5,28.91,West,268,5.4,5.4,22,0.00,,CLR,0.00,VWS V14.01,2013-01-22 13:49:00,
2013-01-22 08:54:00,20.5,-12.3,28.91,West,275,4.9,5.8,22,0.00,,CLR,0.00,VWS V14.01,2013-01-22 13:54:00,
2013-01-22 08:59:00,20.8,-12.0,28.91,WNW,293,6.3,6.3,22,0.00,,CLR,0.00,VWS V14.01,2013-01-22 13:59:00,
2013-01-22 09:04:00,21.0,-11.9,28.91,NW,316,5.4,5.4,22,0.00,,CLR,0.00,VWS V14.01,2013-01-22 14:04:00,
2013-01-22 09:09:00,21.0,-11.9,28.91,NW,313,2.7,2.7,22,0.00,,CLR,0.00,VWS V14.01,2013-01-22 14:09:00,
2013-01-22 09:14:00,21.0,-11.9,28.91,West,271,3.1,5.4,22,0.00,,CLR,0.00,VWS V14.01,2013-01-22 14:14:00,
2013-01-22 09:19:00,21.2,-11.7,28.94,West,271,7.6,7.6,22,0.00,,CLR,0.00,VWS V14.01,2013-01-22 14:19:00,
2013-01-22 09:24:00,21.6,-11.4,28.94,West,272,4.0,6.3,22,0.00,,CLR,0.00,VWS V14.01,2013-01-22 14:24:00,
2013-01-22 09:30:00,21.4,-11.5,28.94,WNW,302,6.3,8.3,22,0.00,,CLR,0.00,VWS V14.01,2013-01-22 14:30:00,
2013-01-22 09:35:00,21.7,-11.2,28.94,SW,227,5.8,10.1,22,0.00,,CLR,0.00,VWS V14.01,2013-01-22 14:35:00,
2013-01-22 09:40:00,22.1,-10.9,28.94,WNW,282,6.3,6.3,22,0.00,,CLR,0.00,VWS V14.01,2013-01-22 14:40:00,
2013-01-22 09:45:00,22.3,-10.8,28.94,West,263,2.7,2.7,22,0.00,,CLR,0.00,VWS V14.01,2013-01-22 14:45:00,
2013-01-22 09:50:00,23.0,-10.2,28.94,West,280,3.1,6.3,22,0.00,,CLR,0.00,VWS V14.01,2013-01-22 14:50:00,
2013-01-22 09:55:00,22.6,-10.5,28.94,WSW,240,7.6,8.7,22,0.00,,CLR,0.00,VWS V14.01,2013-01-22 14:55:00,
2013-01-22 10:00:00,22.5,-10.6,28.94,NW,326,6.3,6.3,22,0.00,,CLR,0.00,VWS V14.01,2013-01-22 15:00:00,
2013-01-22 10:05:00,23.0,-10.2,28.94,WSW,237,6.7,6.7,22,0.00,,CLR,0.00,VWS V14.01,2013-01-22 15:05:00,
2013-01-22 10:10:00,23.4,-9.9,28.94,SSW,208,8.7,8.7,22,0.00,,CLR,0.00,VWS V14.01,2013-01-22 15:10:00,
2013-01-22 10:15:00,23.2,-10.0,28.94,SW,217,6.3,7.6,22,0.00,,CLR,0.00,VWS V14.01,2013-01-22 15:15:00,
2013-01-22 10:20:00,24.3,-9.1,28.94,SW,235,4.0,4.0,22,0.00,,CLR,0.00,VWS V14.01,2013-01-22 15:20:00,
2013-01-22 10:25:00,24.4,-8.9,28.94,SW,226,5.4,5.8,22,0.00,,CLR,0.00,VWS V14.01,2013-01-22 15:25:00,
2013-01-22 10:30:00,24.4,-8.9,28.94,WSW,252,10.1,10.1,22,0.00,,CLR,0.00,VWS V14.01,2013-01-22 15:30:00,
2013-01-22 10:35:00,25.2,-9.3,28.94,West,265,6.3,6.3,21,0.00,,CLR,0.00,VWS V14.01,2013-01-22 15:35:00,
2013-01-22 10:40:00,25.5,-9.0,28.94,West,268,6.7,6.7,21,0.00,,CLR,0.00,VWS V14.01,2013-01-22 15:40:00,
2013-01-22 10:45:00,25.9,-8.7,28.94,West,268,6.7,6.7,21,0.00,,CLR,0.00,VWS V14.01,2013-01-22 15:45:00,
2013-01-22 10:50:00,25.2,-9.3,28.94,West,263,8.7,8.7,21,0.00,,CLR,0.00,VWS V14.01,2013-01-22 15:50:00,
2013-01-22 10:55:00,25.9,-8.7,28.94,West,263,8.7,8.7,21,0.00,,CLR,0.00,VWS V14.01,2013-01-22 15:55:00,
2013-01-22 11:01:00,25.2,-9.3,28.94,West,264,6.3,6.3,21,0.00,,CLR,0.00,VWS V14.01,2013-01-22 16:01:00,
2013-01-22 11:06:00,25.3,-9.1,28.94,North,0,6.3,6.3,21,0.00,,CLR,0.00,VWS V14.01,2013-01-22 16:06:00,
2013-01-22 11:11:00,26.2,-8.4,28.94,WSW,237,4.0,9.2,21,0.00,,CLR,0.00,VWS V14.01,2013-01-22 16:11:00,
2013-01-22 11:16:00,26.8,-7.9,28.94,WSW,237,4.0,4.0,21,0.00,,CLR,0.00,VWS V14.01,2013-01-22 16:16:00,
2013-01-22 11:21:00,25.9,-8.7,28.94,WSW,241,5.8,5.8,21,0.00,,CLR,0.00,VWS V14.01,2013-01-22 16:21:00,
2013-01-22 11:26:00,25.7,-8.8,28.94,WSW,241,5.8,5.8,21,0.00,,CLR,0.00,VWS V14.01,2013-01-22 16:26:00,
2013-01-22 11:31:00,26.8,-7.9,28.94,West,262,5.4,5.4,21,0.00,,CLR,0.00,VWS V14.01,2013-01-22 16:31:00,
2013-01-22 11:36:00,26.1,-8.5,28.94,West,262,5.4,5.4,21,0.00,,CLR,0.00,VWS V14.01,2013-01-22 16:36:00,
2013-01-22 11:41:00,26.2,-8.4,28.94,WNW,283,5.8,5.8,21,0.00,,CLR,0.00,VWS V14.01,2013-01-22 16:41:00,
2013-01-22 11:46:00,26.2,-8.4,28.94,WNW,283,5.8,5.8,21,0.00,,CLR,0.00,VWS V14.01,2013-01-22 16:46:00,
2013-01-22 11:52:00,27.0,-7.8,28.94,West,265,5.8,6.3,21,0.00,,CLR,0.00,VWS V14.01,2013-01-22 16:52:00,
2013-01-22 11:57:00,27.0,-7.8,28.94,WNW,288,2.2,3.6,21,0.00,,CLR,0.00,VWS V14.01,2013-01-22 16:57:00,
2013-01-22 12:02:00,28.0,-6.8,28.94,WSW,258,3.1,3.1,21,0.00,,CLR,0.00,VWS V14.01,2013-01-22 17:02:00,
2013-01-22 12:07:00,27.3,-7.4,28.94,WNW,302,0.0,6.3,21,0.00,,CLR,0.00,VWS V14.01,2013-01-22 17:07:00,
2013-01-22 12:12:00,26.4,-8.2,28.94,WSW,256,2.7,2.7,21,0.00,,CLR,0.00,VWS V14.01,2013-01-22 17:12:00,
2013-01-22 12:17:00,27.0,-7.8,28.94,WNW,286,3.6,3.6,21,0.00,,CLR,0.00,VWS V14.01,2013-01-22 17:17:00,
2013-01-22 12:22:00,28.2,-6.7,28.94,WSW,252,4.9,4.9,21,0.00,,CLR,0.00,VWS V14.01,2013-01-22 17:22:00,
2013-01-22 12:27:00,27.5,-7.3,28.94,NNW,333,5.4,5.4,21,0.00,,CLR,0.00,VWS V14.01,2013-01-22 17:27:00,
2013-01-22 12:32:00,28.2,-6.7,28.91,WNW,289,6.3,8.3,21,0.00,,CLR,0.00,VWS V14.01,2013-01-22 17:32:00,
2013-01-22 12:37:00,27.9,-7.0,28.91,West,266,5.8,5.8,21,0.00,,CLR,0.00,VWS V14.01,2013-01-22 17:37:00,
2013-01-22 12:42:00,26.4,-8.2,28.91,West,259,4.0,7.6,21,0.00,,CLR,0.00,VWS V14.01,2013-01-22 17:42:00,
2013-01-22 12:47:00,26.1,-8.5,28.91,SW,220,8.3,8.3,21,0.00,,CLR,0.00,VWS V14.01,2013-01-22 17:47:00,
2013-01-22 12:52:00,27.5,-7.3,28.91,SW,231,5.8,5.8,21,0.00,,CLR,0.00,VWS V14.01,2013-01-22 17:52:00,
2013-01-22 12:58:00,27.1,-7.6,28.91,SSW,209,5.8,8.3,21,0.00,,CLR,0.00,VWS V14.01,2013-01-22 17:58:00,
2013-01-22 13:03:00,27.3,-7.4,28.91,WSW,245,7.6,8.3,21,0.00,,CLR,0.00,VWS V14.01,2013-01-22 18:03:00,
2013-01-22 13:08:00,28.4,-6.5,28.91,West,280,8.1,8.1,21,0.00,,CLR,0.00,VWS V14.01,2013-01-22 18:08:00,
2013-01-22 13:13:00,28.8,-7.2,28.91,SW,221,5.8,5.8,20,0.00,,CLR,0.00,VWS V14.01,2013-01-22 18:13:00,
2013-01-22 13:18:00,27.3,-7.4,28.91,WSW,249,7.6,7.6,21,0.00,,CLR,0.00,VWS V14.01,2013-01-22 18:18:00,
2013-01-22 13:23:00,27.1,-7.6,28.91,WSW,249,7.6,7.6,21,0.00,,CLR,0.00,VWS V14.01,2013-01-22 18:23:00,
2013-01-22 13:28:00,28.0,-6.8,28.91,West,271,3.1,3.1,21,0.00,,CLR,0.00,VWS V14.01,2013-01-22 18:28:00,
2013-01-22 13:33:00,27.7,-7.2,28.88,West,272,7.6,7.6,21,0.00,,CLR,0.00,VWS V14.01,2013-01-22 18:33:00,
2013-01-22 13:38:00,27.1,-7.6,28.88,SSW,211,7.6,7.6,21,0.00,,CLR,0.00,VWS V14.01,2013-01-22 18:38:00,
2013-01-22 13:43:00,27.9,-7.0,28.88,SW,214,8.3,10.1,21,0.00,,CLR,0.00,VWS V14.01,2013-01-22 18:43:00,
2013-01-22 13:48:00,27.9,-7.0,28.88,WSW,240,5.8,5.8,21,0.00,,CLR,0.00,VWS V14.01,2013-01-22 18:48:00,
2013-01-22 13:53:00,27.9,-7.0,28.88,WSW,241,8.1,8.1,21,0.00,,CLR,0.00,VWS V14.01,2013-01-22 18:53:00,
2013-01-22 13:58:00,26.8,-7.9,28.88,SSW,195,5.4,5.4,21,0.00,,CLR,0.00,VWS V14.01,2013-01-22 18:58:00,
2013-01-22 14:04:00,28.0,-6.8,28.88,SW,233,11.0,11.0,21,0.00,,CLR,0.00,VWS V14.01,2013-01-22 19:04:00,
2013-01-22 14:08:00,28.6,-7.4,28.88,WNW,299,4.0,5.4,20,0.00,,CLR,0.00,VWS V14.01,2013-01-22 19:08:00,
2013-01-22 14:13:00,28.6,-7.4,28.88,WSW,250,8.3,8.3,20,0.00,,CLR,0.00,VWS V14.01,2013-01-22 19:13:00,
2013-01-22 14:19:00,28.2,-6.7,28.88,SW,235,7.2,7.2,21,0.00,,CLR,0.00,VWS V14.01,2013-01-22 19:19:00,
2013-01-22 14:24:00,29.7,-6.5,28.88,WSW,255,5.8,5.8,20,0.00,,CLR,0.00,VWS V14.01,2013-01-22 19:24:00,
2013-01-22 14:29:00,28.6,-7.4,28.88,SW,231,7.2,8.7,20,0.00,,CLR,0.00,VWS V14.01,2013-01-22 19:29:00,
2013-01-22 14:34:00,28.6,-7.4,28.88,WSW,237,6.3,8.3,20,0.00,,CLR,0.00,VWS V14.01,2013-01-22 19:34:00,
2013-01-22 14:39:00,27.9,-7.0,28.88,West,260,5.8,5.8,21,0.00,,CLR,0.00,VWS V14.01,2013-01-22 19:39:00,
2013-01-22 14:44:00,28.6,-7.4,28.88,SW,217,6.3,6.3,20,0.00,,CLR,0.00,VWS V14.01,2013-01-22 19:44:00,
2013-01-22 14:49:00,28.8,-7.2,28.88,WSW,258,12.8,12.8,20,0.00,,CLR,0.00,VWS V14.01,2013-01-22 19:49:00,
2013-01-22 14:54:00,28.2,-6.7,28.88,WSW,238,10.1,10.1,21,0.00,,CLR,0.00,VWS V14.01,2013-01-22 19:54:00,
2013-01-22 14:59:00,28.9,-7.1,28.88,West,260,7.6,8.3,20,0.00,,CLR,0.00,VWS V14.01,2013-01-22 19:59:00,
2013-01-22 15:04:00,28.2,-6.7,28.88,SW,215,11.0,11.0,21,0.00,,CLR,0.00,VWS V14.01,2013-01-22 20:04:00,
2013-01-22 15:09:00,27.5,-7.3,28.88,WSW,241,4.0,4.0,21,0.00,,CLR,0.00,VWS V14.01,2013-01-22 20:09:00,
2013-01-22 15:14:00,28.6,-7.4,28.88,SW,226,8.1,8.1,20,0.00,,CLR,0.00,VWS V14.01,2013-01-22 20:14:00,
2013-01-22 15:19:00,28.6,-7.4,28.91,West,270,7.6,7.6,20,0.00,,CLR,0.00,VWS V14.01,2013-01-22 20:19:00,
2013-01-22 15:24:00,28.2,-6.7,28.91,SSW,203,8.1,8.1,21,0.00,,CLR,0.00,VWS V14.01,2013-01-22 20:24:00,
2013-01-22 15:29:00,28.4,-6.5,28.91,SW,223,8.3,8.3,21,0.00,,CLR,0.00,VWS V14.01,2013-01-22 20:29:00,
2013-01-22 15:41:00,29.5,-6.6,28.88,NNW,338,5.8,5.8,20,0.00,,CLR,0.00,VWS V14.01,2013-01-22 20:41:00,
2013-01-22 15:46:00,29.5,-6.6,28.88,West,268,5.8,5.8,20,0.00,,CLR,0.00,VWS V14.01,2013-01-22 20:46:00,
2013-01-22 15:52:00,28.9,-7.1,28.88,SW,215,5.8,7.6,20,0.00,,CLR,0.00,VWS V14.01,2013-01-22 20:52:00,
2013-01-22 15:57:00,28.8,-7.2,28.88,SW,233,4.0,7.6,20,0.00,,CLR,0.00,VWS V14.01,2013-01-22 20:57:00,
2013-01-22 16:02:00,28.6,-7.4,28.88,NNE,16,4.0,4.0,20,0.00,,CLR,0.00,VWS V14.01,2013-01-22 21:02:00,
2013-01-22 16:07:00,29.5,-6.6,28.88,West,268,3.6,5.8,20,0.00,,CLR,0.00,VWS V14.01,2013-01-22 21:07:00,
2013-01-22 16:12:00,28.4,-6.5,28.88,SW,219,6.7,6.7,21,0.00,,CLR,0.00,VWS V14.01,2013-01-22 21:12:00,
2013-01-22 16:17:00,28.4,-6.5,28.91,SSW,213,4.0,4.0,21,0.00,,CLR,0.00,VWS V14.01,2013-01-22 21:17:00,
2013-01-22 16:22:00,27.9,-7.0,28.91,SW,222,7.6,7.6,21,0.00,,CLR,0.00,VWS V14.01,2013-01-22 21:22:00,
2013-01-22 16:27:00,27.9,-7.0,28.91,WSW,243,3.1,6.3,21,0.00,,CLR,0.00,VWS V14.01,2013-01-22 21:27:00,
2013-01-22 16:31:00,27.9,-7.0,28.91,SW,222,5.4,5.4,21,0.00,,CLR,0.00,VWS V14.01,2013-01-22 21:31:00,
2013-01-22 16:36:00,28.6,-7.4,28.91,WSW,248,3.6,3.6,20,0.00,,CLR,0.00,VWS V14.01,2013-01-22 21:36:00,
2013-01-22 16:41:00,28.2,-6.7,28.91,SW,221,2.2,2.2,21,0.00,,CLR,0.00,VWS V14.01,2013-01-22 21:41:00,
2013-01-22 16:47:00,27.9,-7.0,28.91,WSW,245,3.6,4.0,21,0.00,,CLR,0.00,VWS V14.01,2013-01-22 21:47:00,
2013-01-22 16:51:00,27.3,-7.4,28.91,WSW,239,5.4,6.3,21,0.00,,CLR,0.00,VWS V14.01,2013-01-22 21:51:00,
2013-01-22 16:57:00,27.0,-7.8,28.91,West,268,4.9,6.3,21,0.00,,CLR,0.00,VWS V14.01,2013-01-22 21:57:00,
2013-01-22 17:02:00,27.0,-7.8,28.91,WNW,292,5.4,5.4,21,0.00,,CLR,0.00,VWS V14.01,2013-01-22 22:02:00,
2013-01-22 17:07:00,27.0,-7.8,28.91,WNW,294,2.2,5.4,21,0.00,,CLR,0.00,VWS V14.01,2013-01-22 22:07:00,
2013-01-22 17:12:00,26.1,-8.5,28.91,SW,229,3.6,4.9,21,0.00,,CLR,0.00,VWS V14.01,2013-01-22 22:12:00,
2013-01-22 17:17:00,25.7,-8.8,28.91,SW,233,0.0,3.6,21,0.00,,CLR,0.00,VWS V14.01,2013-01-22 22:17:00,
2013-01-22 17:22:00,25.7,-8.8,28.91,WSW,255,0.0,0.0,21,0.00,,CLR,0.00,VWS V14.01,2013-01-22 22:22:00,
2013-01-22 17:27:00,25.3,-9.1,28.91,WSW,257,0.0,4.0,21,0.00,,CLR,0.00,VWS V14.01,2013-01-22 22:27:00,
2013-01-22 17:32:00,25.3,-9.1,28.91,West,276,3.1,3.1,21,0.00,,CLR,0.00,VWS V14.01,2013-01-22 22:32:00,
2013-01-22 17:37:00,25.0,-9.4,28.91,SW,221,5.8,5.8,21,0.00,,CLR,0.00,VWS V14.01,2013-01-22 22:37:00,
2013-01-22 17:42:00,24.8,-8.6,28.91,WSW,258,4.0,4.0,22,0.00,,CLR,0.00,VWS V14.01,2013-01-22 22:42:00,
2013-01-22 17:47:00,24.8,-8.6,28.94,WSW,256,6.3,6.3,22,0.00,,CLR,0.00,VWS V14.01,2013-01-22 22:47:00,
2013-01-22 17:52:00,24.6,-8.8,28.94,SW,229,5.8,5.8,22,0.00,,CLR,0.00,VWS V14.01,2013-01-22 22:52:00,
2013-01-22 17:57:00,24.6,-8.8,28.94,WSW,238,5.8,5.8,22,0.00,,CLR,0.00,VWS V14.01,2013-01-22 22:57:00,
2013-01-22 18:02:00,24.6,-8.8,28.94,WSW,244,4.9,5.8,22,0.00,,CLR,0.00,VWS V14.01,2013-01-22 23:02:00,
2013-01-22 18:07:00,24.4,-8.9,28.94,WSW,249,5.8,5.8,22,0.00,,CLR,0.00,VWS V14.01,2013-01-22 23:07:00,
2013-01-22 18:13:00,24.6,-8.8,28.94,WSW,239,3.6,4.0,22,0.00,,CLR,0.00,VWS V14.01,2013-01-22 23:13:00,
2013-01-22 18:18:00,24.4,-8.9,28.94,WSW,243,3.6,4.0,22,0.00,,CLR,0.00,VWS V14.01,2013-01-22 23:18:00,
2013-01-22 18:23:00,24.3,-9.1,28.94,WSW,248,4.9,6.3,22,0.00,,CLR,0.00,VWS V14.01,2013-01-22 23:23:00,
2013-01-22 18:28:00,24.4,-8.9,28.94,West,265,8.1,8.1,22,0.00,,CLR,0.00,VWS V14.01,2013-01-22 23:28:00,
2013-01-22 18:33:00,24.4,-8.9,28.94,SW,233,6.3,8.3,22,0.00,,CLR,0.00,VWS V14.01,2013-01-22 23:33:00,
2013-01-22 18:38:00,24.4,-8.9,28.94,NW,306,2.7,4.0,22,0.00,,CLR,0.00,VWS V14.01,2013-01-22 23:38:00,
2013-01-22 18:43:00,24.3,-9.1,28.94,West,266,5.8,7.6,22,0.00,,CLR,0.00,VWS V14.01,2013-01-22 23:43:00,
2013-01-22 18:48:00,24.3,-9.1,28.94,SW,216,4.0,4.0,22,0.00,,CLR,0.00,VWS V14.01,2013-01-22 23:48:00,
2013-01-22 18:53:00,24.1,-9.2,28.94,NW,319,3.6,3.6,22,0.00,,CLR,0.00,VWS V14.01,2013-01-22 23:53:00,
2013-01-22 18:58:00,23.9,-9.4,28.94,West,268,3.6,4.0,22,0.00,,CLR,0.00,VWS V14.01,2013-01-22 23:58:00,
2013-01-22 19:03:00,23.7,-9.6,28.94,WNW,296,3.6,3.6,22,0.00,,CLR,0.00,VWS V14.01,2013-01-23 00:03:00,
2013-01-22 19:08:00,23.7,-9.6,28.94,WSW,248,3.1,3.1,22,0.00,,CLR,0.00,VWS V14.01,2013-01-23 00:08:00,
2013-01-22 19:13:00,23.5,-9.7,28.94,NNW,340,0.0,0.0,22,0.00,,CLR,0.00,VWS V14.01,2013-01-23 00:13:00,
2013-01-22 19:18:00,23.4,-9.9,28.94,NNW,335,0.0,0.0,22,0.00,,CLR,0.00,VWS V14.01,2013-01-23 00:18:00,
2013-01-22 19:23:00,23.0,-10.2,28.94,East,83,0.0,0.0,22,0.00,,CLR,0.00,VWS V14.01,2013-01-23 00:23:00,
2013-01-22 19:28:00,23.0,-10.2,28.94,East,83,0.0,0.0,22,0.00,,CLR,0.00,VWS V14.01,2013-01-23 00:28:00,
2013-01-22 19:33:00,22.8,-10.3,28.94,East,83,0.0,0.0,22,0.00,,CLR,0.00,VWS V14.01,2013-01-23 00:33:00,
2013-01-22 19:38:00,22.6,-10.5,28.94,NNE,20,3.1,4.0,22,0.00,,CLR,0.00,VWS V14.01,2013-01-23 00:38:00,
2013-01-22 19:43:00,22.6,-10.5,28.94,WSW,257,2.7,3.1,22,0.00,,CLR,0.00,VWS V14.01,2013-01-23 00:43:00,
2013-01-22 19:48:00,22.6,-10.5,28.94,WSW,254,2.2,2.2,22,0.00,,CLR,0.00,VWS V14.01,2013-01-23 00:48:00,
2013-01-22 19:54:00,22.3,-10.8,28.94,West,267,0.0,0.0,22,0.00,,CLR,0.00,VWS V14.01,2013-01-23 00:54:00,
2013-01-22 19:59:00,22.1,-10.9,28.94,West,267,0.0,0.0,22,0.00,,CLR,0.00,VWS V14.01,2013-01-23 00:59:00,
2013-01-22 20:04:00,21.9,-11.1,28.94,WSW,244,2.2,3.1,22,0.00,,CLR,0.00,VWS V14.01,2013-01-23 01:04:00,
2013-01-22 20:09:00,21.9,-11.1,28.94,West,269,0.0,0.0,22,0.00,,CLR,0.00,VWS V14.01,2013-01-23 01:09:00,
2013-01-22 20:14:00,21.7,-11.2,28.94,NW,305,3.6,3.6,22,0.00,,CLR,0.00,VWS V14.01,2013-01-23 01:14:00,
2013-01-22 20:19:00,21.9,-11.1,28.94,WNW,282,3.1,3.1,22,0.00,,CLR,0.00,VWS V14.01,2013-01-23 01:19:00,
2013-01-22 20:24:00,21.9,-11.1,28.94,West,278,0.0,0.0,22,0.00,,CLR,0.00,VWS V14.01,2013-01-23 01:24:00,
2013-01-22 20:29:00,21.9,-11.1,28.94,West,267,2.7,2.7,22,0.00,,CLR,0.00,VWS V14.01,2013-01-23 01:29:00,
2013-01-22 20:34:00,21.9,-11.1,28.94,WSW,252,2.2,2.2,22,0.00,,CLR,0.00,VWS V14.01,2013-01-23 01:34:00,
2013-01-22 20:39:00,21.7,-11.2,28.94,NNW,337,0.0,2.7,22,0.00,,CLR,0.00,VWS V14.01,2013-01-23 01:39:00,
2013-01-22 20:44:00,21.4,-11.5,28.94,North,357,0.0,0.0,22,0.00,,CLR,0.00,VWS V14.01,2013-01-23 01:44:00,
2013-01-22 20:49:00,21.4,-11.5,28.94,East,84,0.0,0.0,22,0.00,,CLR,0.00,VWS V14.01,2013-01-23 01:49:00,
2013-01-22 20:54:00,21.2,-11.7,28.94,East,84,0.0,0.0,22,0.00,,CLR,0.00,VWS V14.01,2013-01-23 01:54:00,
2013-01-22 20:59:00,21.0,-11.9,28.94,East,84,0.0,0.0,22,0.00,,CLR,0.00,VWS V14.01,2013-01-23 01:59:00,
2013-01-22 21:04:00,21.6,-11.4,28.94,West,272,0.0,2.2,22,0.00,,CLR,0.00,VWS V14.01,2013-01-23 02:04:00,
2013-01-22 21:09:00,21.4,-11.5,28.94,WSW,252,2.7,2.7,22,0.00,,CLR,0.00,VWS V14.01,2013-01-23 02:09:00,
2013-01-22 21:14:00,21.4,-11.5,28.94,West,262,4.9,5.8,22,0.00,,CLR,0.00,VWS V14.01,2013-01-23 02:14:00,
2013-01-22 21:19:00,21.7,-11.2,28.94,WSW,251,3.1,3.6,22,0.00,,CLR,0.00,VWS V14.01,2013-01-23 02:19:00,
2013-01-22 21:24:00,21.6,-11.4,28.94,WSW,244,0.0,0.0,22,0.00,,CLR,0.00,VWS V14.01,2013-01-23 02:24:00,
2013-01-22 21:30:00,21.4,-11.5,28.94,WSW,244,0.0,0.0,22,0.00,,CLR,0.00,VWS V14.01,2013-01-23 02:30:00,
2013-01-22 21:35:00,21.2,-11.7,28.94,WNW,283,2.2,2.2,22,0.00,,CLR,0.00,VWS V14.01,2013-01-23 02:35:00,
2013-01-22 21:40:00,21.2,-11.7,28.94,West,267,0.0,2.7,22,0.00,,CLR,0.00,VWS V14.01,2013-01-23 02:40:00,
2013-01-22 21:45:00,21.0,-11.9,28.94,SW,224,0.0,2.2,22,0.00,,CLR,0.00,VWS V14.01,2013-01-23 02:45:00,
2013-01-22 21:50:00,21.2,-11.7,28.97,West,259,0.0,0.0,22,0.00,,CLR,0.00,VWS V14.01,2013-01-23 02:50:00,
2013-01-22 21:55:00,21.0,-11.9,28.97,SW,229,2.7,2.7,22,0.00,,CLR,0.00,VWS V14.01,2013-01-23 02:55:00,
2013-01-22 22:00:00,21.0,-11.9,28.97,SSW,197,0.0,2.2,22,0.00,,CLR,0.00,VWS V14.01,2013-01-23 03:00:00,
2013-01-22 22:05:00,21.0,-11.9,28.94,WNW,299,0.0,0.0,22,0.00,,CLR,0.00,VWS V14.01,2013-01-23 03:05:00,
2013-01-22 22:10:00,21.2,-11.7,28.94,WSW,238,2.7,2.7,22,0.00,,CLR,0.00,VWS V14.01,2013-01-23 03:10:00,
2013-01-22 22:15:00,21.2,-11.7,28.94,West,264,2.7,2.7,22,0.00,,CLR,0.00,VWS V14.01,2013-01-23 03:15:00,
2013-01-22 22:20:00,21.2,-11.7,28.97,West,259,0.0,2.2,22,0.00,,CLR,0.00,VWS V14.01,2013-01-23 03:20:00,
2013-01-22 22:25:00,21.2,-11.7,28.97,WNW,290,2.7,3.1,22,0.00,,CLR,0.00,VWS V14.01,2013-01-23 03:25:00,
2013-01-22 22:30:00,21.2,-11.7,28.97,NW,320,2.7,2.7,22,0.00,,CLR,0.00,VWS V14.01,2013-01-23 03:30:00,
2013-01-22 22:35:00,21.2,-11.7,28.97,WSW,240,3.6,3.6,22,0.00,,CLR,0.00,VWS V14.01,2013-01-23 03:35:00,
2013-01-22 22:40:00,21.0,-11.9,28.97,SW,217,4.0,4.0,22,0.00,,CLR,0.00,VWS V14.01,2013-01-23 03:40:00,
2013-01-22 22:45:00,20.8,-12.0,28.97,SW,233,2.7,2.7,22,0.00,,CLR,0.00,VWS V14.01,2013-01-23 03:45:00,
2013-01-22 22:50:00,21.0,-11.9,28.97,SW,233,3.1,3.1,22,0.00,,CLR,0.00,VWS V14.01,2013-01-23 03:50:00,
2013-01-22 22:56:00,21.2,-11.7,28.97,West,274,5.4,6.3,22,0.00,,CLR,0.00,VWS V14.01,2013-01-23 03:56:00,
2013-01-22 23:01:00,21.0,-11.9,28.97,West,267,3.6,3.6,22,0.00,,CLR,0.00,VWS V14.01,2013-01-23 04:01:00,